Date,TemperatureHighF,TemperatureAvgF,TemperatureLowF,DewpointHighF,DewpointAvgF,DewpointLowF,HumidityHigh,HumidityAvg,HumidityLow,PressureMaxIn,PressureMinIn,WindSpeedMaxMPH,WindSpeedAvgMPH,GustSpeedMaxMPH,PrecipitationSumIn
2013-11-1,70,66,60,100,71,-39,100,57,1,29.17,28.91,10,2,10,0.18
2013-11-2,70,59,51,100,52,-44,98,36,1,29.20,28.96,12,2,12,0.02
2013-11-3,64,50,39,41,38,34,93,66,39,29.64,29.20,10,1,10,0.00
2013-11-4,56,43,34,37,32,30,94,69,41,29.83,29.64,9,0,9,0.00
2013-11-5,59,46,34,52,41,31,100,83,62,29.81,29.69,6,0,6,0.00
2013-11-6,74,55,42,57,48,27,100,81,34,29.69,29.37,4,0,4,0.00
2013-11-7,68,57,40,100,53,-44,98,46,2,29.38,29.18,13,2,13,0.01
2013-11-8,56,44,33,33,28,24,89,57,33,29.60,29.37,12,2,12,0.00
2013-11-9,57,42,25,43,31,23,100,68,37,29.65,29.43,7,1,7,0.00
2013-11-10,69,54,38,42,34,26,88,51,27,29.51,29.30,18,2,18,0.00
2013-11-11,62,46,29,36,30,26,100,57,28,29.62,29.40,4,0,4,0.00
2013-11-12,58,41,31,39,31,14,100,70,44,29.69,29.31,10,1,10,0.01
2013-11-13,46,32,21,21,17,14,86,58,33,29.80,29.69,10,1,10,0.00
2013-11-14,60,39,24,25,22,18,83,54,24,29.73,29.58,9,1,9,0.00
2013-11-15,62,46,29,50,34,22,100,64,39,29.61,29.47,6,0,6,0.00
2013-11-16,60,53,48,100,41,-46,100,59,1,29.54,29.48,2,0,2,0.02
2013-11-17,67,59,53,100,80,-41,100,34,8,29.49,29.15,6,0,6,0.02
2013-11-18,73,63,49,100,56,-42,97,32,1,29.24,29.06,12,2,12,0.05
2013-11-19,56,46,37,30,28,26,68,52,35,29.59,29.24,10,1,10,0.00
2013-11-20,53,41,33,40,31,27,100,69,46,29.72,29.59,10,1,10,0.00
2013-11-21,57,46,37,47,42,36,100,87,64,29.77,29.65,5,0,5,0.00
2013-11-22,67,56,43,62,55,39,100,96,82,29.67,29.33,9,1,9,0.00
2013-11-23,61,53,39,61,40,16,100,63,30,29.44,29.30,12,2,12,0.00
2013-11-24,40,30,20,22,8,2,74,42,26,29.82,29.44,10,3,10,0.00
2013-11-25,43,28,13,20,12,6,100,57,24,29.87,29.65,6,0,6,0.00
2013-11-26,61,40,32,100,50,-54,100,39,1,29.65,28.87,14,1,14,1.10
2013-11-27,44,37,26,100,48,-41,98,45,2,29.42,28.80,15,4,15,0.60
2013-11-28,47,30,21,25,19,16,95,66,36,29.75,29.42,7,1,7,0.00
2013-11-29,50,35,25,29,25,23,100,71,39,29.91,29.73,6,0,6,0.00
2013-11-30,47,33,23,32,27,22,100,82,54,29.93,29.65,5,0,5,0.00